SondeTracker

Meteorological Radiosondes Database

Operations

Sounding was ended - last measurement: 2022-12-06 13:35:33z

MAP
About Radiosonde

Number: U3114535

Launch Site: Brasilia (BR)

Type: RS41

AUX: NO

Frequency: 403.001 MHz

Max Speed: 96 km/h at 19673 m

Average Speed: 32.75 km/h

Max Altitude: 20820 m

Average Ascent Speed: 5.47 m/s

Average Descent Speed: 4.92 m/s

Status: UNKNOWN

Status Changes
Launch Site Type AUX Frequency Status Finder Landing Point Description Changes made by
APRS Statistics

Received Frames: 170

First Frame [UTC]: 2022-12-06 11:34:26z

Last Frame [UTC]: 2022-12-06 13:35:33z

Receivers: PT2VHF

Flight Time: 02:01:07 h

Distance From First Measurement: 45.12 km

Nearest City: Águas Lindas de Goiás (BR) [5.55 km]

Nearest Hunter: [0.00 km]

Ground Altitude: 1018 m

Distance from QTH: 0.00 km

APRS Data
Receiver Number Date/Time [UTC] φ λ Course [°] Speed [km/h] Altitude [m] Description
PT2VHFU31145352022-12-06 13:35:33-15.779-48.3167178262036Clb=-2.9m/s t=14.9C h=88.6% p=801.2hPa 403.001 MHz Type=RS41-SGP ser=U3114535 Radiosonde
PT2VHFU31145352022-12-06 13:35:03-15.7781-48.3166180242078Clb=-3.0m/s t=14.6C h=90.9% p=797.2hPa 403.001 MHz Type=RS41-SGP ser=U3114535 Radiosonde
PT2VHFU31145352022-12-06 13:34:31-15.7769-48.3166181202135Clb=-2.9m/s t=14.3C h=90.1% p=791.9hPa 403.001 MHz Type=RS41-SGP ser=U3114535 Radiosonde
PT2VHFU31145352022-12-06 13:33:58-15.7754-48.3167179192220Clb=-2.7m/s t=14.0C h=89.5% p=784.1hPa 403.001 MHz Type=RS41-SGP ser=U3114535 Radiosonde
PT2VHFU31145352022-12-06 13:33:28-15.7737-48.3168176192319Clb=-2.7m/s t=13.5C h=87.0% p=775.0hPa 403.001 MHz Type=RS41-SGP ser=U3114535 Radiosonde
PT2VHFU31145352022-12-06 13:32:57-15.7721-48.3169174202405Clb=-2.7m/s t=13.0C h=87.0% p=767.0hPa 403.001 MHz Type=RS41-SGP ser=U3114535 Radiosonde
PT2VHFU31145352022-12-06 13:32:25-15.7707-48.317178202478Clb=-3.0m/s t=12.6C h=84.6% p=760.3hPa 403.001 MHz Type=RS41-SGP ser=U3114535 Radiosonde
PT2VHFU31145352022-12-06 13:31:54-15.7693-48.3172165172570Clb=-3.1m/s t=12.2C h=81.6% p=752.4hPa 403.001 MHz Type=RS41-SGP ser=U3114535 Radiosonde
PT2VHFU31145352022-12-06 13:31:23-15.7683-48.3176153132664Clb=-3.2m/s t=11.3C h=85.5% p=744.0hPa 403.001 MHz Type=RS41-SGP ser=U3114535 Radiosonde
PT2VHFU31145352022-12-06 13:30:52-15.7676-48.318115192767Clb=-3.1m/s t=10.4C h=91.2% p=734.8hPa 403.001 MHz Type=RS41-SGP ser=U3114535 Radiosonde
PT2VHFU31145352022-12-06 13:30:21-15.7668-48.3186149112857Clb=-3.1m/s t=10.7C h=76.0% p=727.0hPa 403.001 MHz Type=RS41-SGP ser=U3114535 Radiosonde
PT2VHFU31145352022-12-06 13:29:50-15.766-48.3191137152951Clb=-3.6m/s t=10.1C h=76.8% p=719.1hPa 403.001 MHz Type=RS41-SGP ser=U3114535 Radiosonde
PT2VHFU31145352022-12-06 13:29:19-15.7652-48.3201122173041Clb=-2.9m/s t=9.5C h=80.5% p=711.1hPa 403.001 MHz Type=RS41-SGP ser=U3114535 Radiosonde
PT2VHFU31145352022-12-06 13:28:50-15.7646-48.3211113153129Clb=-2.9m/s t=8.9C h=81.5% p=703.7hPa 403.001 MHz Type=RS41-SGP ser=U3114535 Radiosonde
PT2VHFU31145352022-12-06 13:28:18-15.7641-48.3224106193215Clb=-2.9m/s t=8.9C h=76.8% p=696.4hPa 403.001 MHz Type=RS41-SGP ser=U3114535 Radiosonde
PT2VHFU31145352022-12-06 13:27:45-15.7636-48.3239112193304Clb=-2.9m/s t=8.2C h=80.1% p=689.0hPa 403.001 MHz Type=RS41-SGP ser=U3114535 Radiosonde
PT2VHFU31145352022-12-06 13:27:14-15.7628-48.3252124193392Clb=-2.9m/s t=7.4C h=84.3% p=681.8hPa 403.001 MHz Type=RS41-SGP ser=U3114535 Radiosonde
PT2VHFU31145352022-12-06 13:26:43-15.762-48.3263139133477Clb=-3.1m/s t=6.8C h=86.3% p=674.5hPa 403.001 MHz Type=RS41-SGP ser=U3114535 Radiosonde
PT2VHFU31145352022-12-06 13:26:13-15.7612-48.326915293567Clb=-3.1m/s t=6.6C h=82.1% p=667.3hPa 403.001 MHz Type=RS41-SGP ser=U3114535 Radiosonde
PT2VHFU31145352022-12-06 13:25:43-15.7604-48.32718493658Clb=-3.3m/s t=5.9C h=84.3% p=660.0hPa 403.001 MHz Type=RS41-SGP ser=U3114535 Radiosonde
PT2VHFU31145352022-12-06 13:25:10-15.7595-48.3268199113751Clb=-2.8m/s t=5.3C h=85.3% p=652.7hPa 403.001 MHz Type=RS41-SGP ser=U3114535 Radiosonde
PT2VHFU31145352022-12-06 13:24:40-15.7585-48.3263203173837Clb=-2.7m/s t=4.7C h=88.6% p=645.8hPa 403.001 MHz Type=RS41-SGP ser=U3114535 Radiosonde
PT2VHFU31145352022-12-06 13:24:09-15.7572-48.3256207203929Clb=-3.1m/s t=4.4C h=86.9% p=638.6hPa 403.001 MHz Type=RS41-SGP ser=U3114535 Radiosonde
PT2VHFU31145352022-12-06 13:23:36-15.7556-48.3248206244019Clb=-2.9m/s t=3.7C h=88.3% p=631.7hPa 403.001 MHz Type=RS41-SGP ser=U3114535 Radiosonde
PT2VHFU31145352022-12-06 13:23:20-15.7343-48.320517796810Clb=-3.9m/s t=-11.0C h=91.0% p=444.5hPa 403.001 MHz Type=RS41-SGP ser=U3114535 Radiosonde
PT2VHFU31145352022-12-06 13:22:41-15.7334-48.3204190136922Clb=-3.6m/s t=-11.6C h=86.8% p=438.0hPa 403.001 MHz Type=RS41-SGP ser=U3114535 Radiosonde
PT2VHFU31145352022-12-06 13:21:58-15.7324-48.320218597034Clb=-3.7m/s t=-12.3C h=87.6% p=431.8hPa 403.001 MHz Type=RS41-SGP ser=U3114535 Radiosonde
PT2VHFU31145352022-12-06 13:21:31-15.7317-48.3219697147Clb=-3.9m/s t=-13.1C h=90.7% p=425.4hPa 403.001 MHz Type=RS41-SGP ser=U3114535 Radiosonde
PT2VHFU31145352022-12-06 13:20:43-15.7309-48.3197194117266Clb=-3.7m/s t=-13.8C h=88.3% p=418.8hPa 403.001 MHz Type=RS41-SGP ser=U3114535 Radiosonde
PT2VHFU31145352022-12-06 13:19:55-15.7298-48.3189223177388Clb=-3.6m/s t=-14.5C h=86.2% p=412.2hPa 403.001 MHz Type=RS41-SGP ser=U3114535 Radiosonde
PT2VHFU31145352022-12-06 13:19:16-15.7288-48.3178227207495Clb=-3.6m/s t=-15.2C h=83.5% p=406.4hPa 403.001 MHz Type=RS41-SGP ser=U3114535 Radiosonde
PT2VHFU31145352022-12-06 13:18:33-15.7267-48.3158212227685Clb=-3.9m/s t=-16.4C h=81.4% p=396.3hPa 403.001 MHz Type=RS41-SGP ser=U3114535 Radiosonde
PT2VHFU31145352022-12-06 13:17:58-15.7262-48.3155212157732Clb=-4.4m/s t=-16.7C h=80.3% p=393.9hPa 403.001 MHz Type=RS41-SGP ser=U3114535 Radiosonde
PT2VHFU31145352022-12-06 13:17:11-15.7253-48.3148215137852Clb=-4.0m/s t=-17.5C h=80.6% p=387.7hPa 403.001 MHz Type=RS41-SGP ser=U3114535 Radiosonde
PT2VHFU31145352022-12-06 13:16:51-15.7246-48.314237117971Clb=-3.8m/s t=-18.3C h=83.3% p=381.6hPa 403.001 MHz Type=RS41-SGP ser=U3114535 Radiosonde
PT2VHFU31145352022-12-06 13:16:46-15.724-48.313240118089Clb=-3.8m/s t=-19.1C h=82.8% p=375.6hPa 403.001 MHz Type=RS41-SGP ser=U3114535 Radiosonde
PT2VHFU31145352022-12-06 13:15:01-15.7233-48.312227138235Clb=-4.1m/s t=-20.1C h=83.5% p=368.4hPa 403.001 MHz Type=RS41-SGP ser=U3114535 Radiosonde
PT2VHFU31145352022-12-06 13:14:34-15.7227-48.3113221158334Clb=-4.1m/s t=-20.8C h=83.5% p=363.4hPa 403.001 MHz Type=RS41-SGP ser=U3114535 Radiosonde
PT2VHFU31145352022-12-06 13:13:40-15.7219-48.310620998463Clb=-4.1m/s t=-21.8C h=81.7% p=357.2hPa 403.001 MHz Type=RS41-SGP ser=U3114535 Radiosonde
PT2VHFU31145352022-12-06 13:13:06-15.7213-48.310418568589Clb=-3.9m/s t=-22.7C h=83.3% p=351.1hPa 403.001 MHz Type=RS41-SGP ser=U3114535 Radiosonde
PT2VHFU31145352022-12-06 13:12:14-15.7207-48.310516198720Clb=-4.0m/s t=-23.7C h=85.1% p=344.9hPa 403.001 MHz Type=RS41-SGP ser=U3114535 Radiosonde
PT2VHFU31145352022-12-06 13:12:01-15.72-48.310914598846Clb=-4.3m/s t=-24.5C h=86.2% p=338.9hPa 403.001 MHz Type=RS41-SGP ser=U3114535 Radiosonde
PT2VHFU31145352022-12-06 13:11:52-15.7195-48.311413298973Clb=-4.0m/s t=-25.3C h=87.3% p=333.2hPa 403.001 MHz Type=RS41-SGP ser=U3114535 Radiosonde
PT2VHFU31145352022-12-06 13:11:45-15.7191-48.312111199101Clb=-4.2m/s t=-26.3C h=85.2% p=327.3hPa 403.001 MHz Type=RS41-SGP ser=U3114535 Radiosonde
PT2VHFU31145352022-12-06 13:11:38-15.7187-48.313106139229Clb=-4.1m/s t=-27.3C h=85.9% p=321.6hPa 403.001 MHz Type=RS41-SGP ser=U3114535 Radiosonde
PT2VHFU31145352022-12-06 13:11:37-15.7184-48.314192119360Clb=-3.7m/s t=-28.3C h=86.2% p=315.7hPa 403.001 MHz Type=RS41-SGP ser=U3114535 Radiosonde
PT2VHFU31145352022-12-06 13:11:26-15.7185-48.31573119484Clb=-4.3m/s t=-29.2C h=83.0% p=310.3hPa 403.001 MHz Type=RS41-SGP ser=U3114535 Radiosonde
PT2VHFU31145352022-12-06 13:10:44-15.7187-48.31588179618Clb=-4.7m/s t=-30.3C h=82.4% p=304.6hPa 403.001 MHz Type=RS41-SGP ser=U3114535 Radiosonde
PT2VHFU31145352022-12-06 13:10:03-15.7187-48.31647779751Clb=-4.0m/s t=-31.4C h=80.5% p=299.0hPa 403.001 MHz Type=RS41-SGP ser=U3114535 Radiosonde
PT2VHFU31145352022-12-06 13:09:05-15.7189-48.317163119886Clb=-4.5m/s t=-32.5C h=81.2% p=293.3hPa 403.001 MHz Type=RS41-SGP ser=U3114535 Radiosonde
PT2VHFU31145352022-12-06 13:08:09-15.7193-48.317746710022Clb=-4.4m/s t=-33.6C h=78.9% p=287.7hPa 403.001 MHz Type=RS41-SGP ser=U3114535 Radiosonde
PT2VHFU31145352022-12-06 13:07:09-15.7196-48.31831410150Clb=-4.1m/s t=-34.7C h=76.3% p=282.5hPa 403.001 MHz Type=RS41-SGP ser=U3114535 Radiosonde
PT2VHFU31145352022-12-06 13:05:38-15.7198-48.31833210421Clb=-4.7m/s t=-36.9C h=73.4% p=271.7hPa 403.001 MHz Type=RS41-SGP ser=U3114535 Radiosonde
PT2VHFU31145352022-12-06 13:04:43-15.7201-48.318412410565Clb=-4.7m/s t=-38.2C h=68.9% p=266.1hPa 403.001 MHz Type=RS41-SGP ser=U3114535 Radiosonde
PT2VHFU31145352022-12-06 13:03:45-15.7206-48.3183344710705Clb=-4.9m/s t=-39.5C h=72.0% p=260.7hPa 403.001 MHz Type=RS41-SGP ser=U3114535 Radiosonde
PT2VHFU31145352022-12-06 13:03:07-15.7215-48.31813511110870Clb=-4.9m/s t=-40.8C h=64.0% p=254.5hPa 403.001 MHz Type=RS41-SGP ser=U3114535 Radiosonde
PT2VHFU31145352022-12-06 13:02:09-15.7225-48.31783351710999Clb=-4.3m/s t=-41.9C h=59.9% p=249.8hPa 403.001 MHz Type=RS41-SGP ser=U3114535 Radiosonde
PT2VHFU31145352022-12-06 13:01:22-15.7237-48.31713301911141Clb=-4.9m/s t=-43.1C h=54.4% p=244.6hPa 403.001 MHz Type=RS41-SGP ser=U3114535 Radiosonde
PT2VHFU31145352022-12-06 13:00:30-15.7251-48.31633271911288Clb=-4.7m/s t=-44.5C h=52.0% p=239.3hPa 403.001 MHz Type=RS41-SGP ser=U3114535 Radiosonde
PT2VHFU31145352022-12-06 12:59:17-15.7263-48.31553221911420Clb=-4.2m/s t=-45.7C h=49.5% p=234.7hPa 403.001 MHz Type=RS41-SGP ser=U3114535 Radiosonde
PT2VHFU31145352022-12-06 12:58:12-15.7276-48.31443212211563Clb=-4.3m/s t=-46.9C h=50.1% p=229.8hPa 403.001 MHz Type=RS41-SGP ser=U3114535 Radiosonde
PT2VHFU31145352022-12-06 12:57:26-15.7292-48.31313163111713Clb=-5.1m/s t=-48.3C h=49.9% p=224.6hPa 403.001 MHz Type=RS41-SGP ser=U3114535 Radiosonde
PT2VHFU31145352022-12-06 12:56:15-15.7313-48.31133223711865Clb=-5.7m/s t=-49.7C h=45.5% p=219.4hPa 403.001 MHz Type=RS41-SGP ser=U3114535 Radiosonde
PT2VHFU31145352022-12-06 12:55:46-15.7339-48.30963303712037Clb=-5.7m/s t=-51.3C h=49.4% p=213.7hPa 403.001 MHz Type=RS41-SGP ser=U3114535 Radiosonde
PT2VHFU31145352022-12-06 12:54:23-15.737-48.30783355012213Clb=-6.4m/s t=-52.7C h=50.3% p=207.9hPa 403.001 MHz Type=RS41-SGP ser=U3114535 Radiosonde
PT2VHFU31145352022-12-06 12:53:32-15.7407-48.30623395212394Clb=-6.1m/s t=-54.3C h=58.8% p=202.2hPa 403.001 MHz Type=RS41-SGP ser=U3114535 Radiosonde
PT2VHFU31145352022-12-06 12:52:43-15.7447-48.30493425612576Clb=-5.9m/s t=-56.0C h=59.9% p=196.6hPa 403.001 MHz Type=RS41-SGP ser=U3114535 Radiosonde
PT2VHFU31145352022-12-06 12:51:25-15.7494-48.30343426112759Clb=-6.1m/s t=-57.7C h=57.8% p=190.9hPa 403.001 MHz Type=RS41-SGP ser=U3114535 Radiosonde
PT2VHFU31145352022-12-06 12:50:31-15.754-48.30193436512935Clb=-6.1m/s t=-59.3C h=52.9% p=185.6hPa 403.001 MHz Type=RS41-SGP ser=U3114535 Radiosonde
PT2VHFU31145352022-12-06 12:49:22-15.7592-48.30033427013124Clb=-6.1m/s t=-60.7C h=40.4% p=180.2hPa 403.001 MHz Type=RS41-SGP ser=U3114535 Radiosonde
PT2VHFU31145352022-12-06 12:48:18-15.7647-48.29833388013309Clb=-6.1m/s t=-61.9C h=38.9% p=174.9hPa 403.001 MHz Type=RS41-SGP ser=U3114535 Radiosonde
PT2VHFU31145352022-12-06 12:47:12-15.7708-48.29573388513487Clb=-6.1m/s t=-63.1C h=31.4% p=169.9hPa 403.001 MHz Type=RS41-SGP ser=U3114535 Radiosonde
PT2VHFU31145352022-12-06 12:46:17-15.7771-48.29273309413667Clb=-5.9m/s t=-64.1C h=29.4% p=165.0hPa 403.001 MHz Type=RS41-SGP ser=U3114535 Radiosonde
PT2VHFU31145352022-12-06 12:45:22-15.7833-48.28873248913848Clb=-6.1m/s t=-64.3C h=30.3% p=160.2hPa 403.001 MHz Type=RS41-SGP ser=U3114535 Radiosonde
PT2VHFU31145352022-12-06 12:44:34-15.7884-48.28423158114035Clb=-5.7m/s t=-65.2C h=33.4% p=155.4hPa 403.001 MHz Type=RS41-SGP ser=U3114535 Radiosonde
PT2VHFU31145352022-12-06 12:43:52-15.7927-48.2793058114238Clb=-6.6m/s t=-66.4C h=35.2% p=150.4hPa 403.001 MHz Type=RS41-SGP ser=U3114535 Radiosonde
PT2VHFU31145352022-12-06 12:43:49-15.7959-48.27392997014435Clb=-6.3m/s t=-68.0C h=39.3% p=145.5hPa 403.001 MHz Type=RS41-SGP ser=U3114535 Radiosonde
PT2VHFU31145352022-12-06 12:43:44-15.7984-48.26892956314633Clb=-6.7m/s t=-69.8C h=42.8% p=140.8hPa 403.001 MHz Type=RS41-SGP ser=U3114535 Radiosonde
PT2VHFU31145352022-12-06 12:43:29-15.8006-48.26452965714832Clb=-6.4m/s t=-71.4C h=42.2% p=136.1hPa 403.001 MHz Type=RS41-SGP ser=U3114535 Radiosonde
PT2VHFU31145352022-12-06 12:43:06-15.8031-48.26013036715031Clb=-7.1m/s t=-73.0C h=40.7% p=131.6hPa 403.001 MHz Type=RS41-SGP ser=U3114535 Radiosonde
PT2VHFU31145352022-12-06 12:42:17-15.8066-48.25553048015235Clb=-6.8m/s t=-73.8C h=36.4% p=127.1hPa 403.001 MHz Type=RS41-SGP ser=U3114535 Radiosonde
PT2VHFU31145352022-12-06 12:42:00-15.8094-48.25022926915444Clb=-7.2m/s t=-74.4C h=29.8% p=122.6hPa 403.001 MHz Type=RS41-SGP ser=U3114535 Radiosonde
PT2VHFU31145352022-12-06 12:41:54-15.811-48.24522896515660Clb=-7.2m/s t=-75.8C h=26.9% p=118.1hPa 403.001 MHz Type=RS41-SGP ser=U3114535 Radiosonde
PT2VHFU31145352022-12-06 12:41:51-15.8129-48.24012936915885Clb=-7.7m/s t=-75.3C h=20.2% p=113.6hPa 403.001 MHz Type=RS41-SGP ser=U3114535 Radiosonde
PT2VHFU31145352022-12-06 12:41:49-15.8154-48.23493007616119Clb=-8.0m/s t=-76.6C h=21.6% p=109.1hPa 403.001 MHz Type=RS41-SGP ser=U3114535 Radiosonde
PT2VHFU31145352022-12-06 12:41:47-15.818-48.22852848116360Clb=-7.9m/s t=-76.3C h=18.7% p=104.6hPa 403.001 MHz Type=RS41-SGP ser=U3114535 Radiosonde
PT2VHFU31145352022-12-06 12:41:43-15.8191-48.22242766316611Clb=-8.2m/s t=-77.9C h=17.8% p=100.2hPa 403.001 MHz Type=RS41-SGP ser=U3114535 Radiosonde
PT2VHFU31145352022-12-06 12:41:08-15.8199-48.2182925716855Clb=-8.0m/s t=-78.1C h=17.0% p=96.0hPa 403.001 MHz Type=RS41-SGP ser=U3114535 Radiosonde
PT2VHFU31145352022-12-06 12:40:08-15.8219-48.21332907017104Clb=-7.9m/s t=-76.7C h=14.5% p=92.0hPa 403.001 MHz Type=RS41-SGP ser=U3114535 Radiosonde
PT2VHFU31145352022-12-06 12:39:33-15.8234-48.20792846317347Clb=-8.0m/s t=-76.5C h=14.2% p=88.1hPa 403.001 MHz Type=RS41-SGP ser=U3114535 Radiosonde
PT2VHFU31145352022-12-06 12:37:49-15.8238-48.20392713317595Clb=-8.2m/s t=-74.8C h=10.9% p=84.4hPa 403.001 MHz Type=RS41-SGP ser=U3114535 Radiosonde
PT2VHFU31145352022-12-06 12:36:38-15.8243-48.2012804317854Clb=-8.8m/s t=-74.4C h=10.6% p=80.7hPa 403.001 MHz Type=RS41-SGP ser=U3114535 Radiosonde
PT2VHFU31145352022-12-06 12:35:27-15.8246-48.19712734418127Clb=-9.5m/s t=-73.6C h=9.5% p=77.1hPa 403.001 MHz Type=RS41-SGP ser=U3114535 Radiosonde
PT2VHFU31145352022-12-06 12:34:50-15.8239-48.19322474618411Clb=-9.3m/s t=-73.9C h=8.3% p=73.4hPa 403.001 MHz Type=RS41-SGP ser=U3114535 Radiosonde
PT2VHFU31145352022-12-06 12:32:54-15.8228-48.18942534618704Clb=-9.9m/s t=-74.5C h=7.8% p=69.8hPa 403.001 MHz Type=RS41-SGP ser=U3114535 Radiosonde
PT2VHFU31145352022-12-06 12:31:56-15.8041-48.1082616120820Clb=2.9m/s t=-60.7C h=2.1% p=48.9hPa 403.000 MHz Type=RS41-SGP ser=U3114535 Radiosonde
PT2VHFU31145352022-12-06 12:30:45-15.8043-48.10252767620628Clb=7.5m/s t=-62.7C h=2.9% p=50.4hPa 403.000 MHz Type=RS41-SGP ser=U3114535 Radiosonde
PT2VHFU31145352022-12-06 12:29:29-15.8045-48.09622848020426Clb=6.3m/s t=-64.5C h=3.6% p=52.1hPa 403.000 MHz Type=RS41-SGP ser=U3114535 Radiosonde
PT2VHFU31145352022-12-06 12:28:19-15.8062-48.09012858320216Clb=6.3m/s t=-67.4C h=5.0% p=53.9hPa 403.000 MHz Type=RS41-SGP ser=U3114535 Radiosonde
PT2VHFU31145352022-12-06 12:27:43-15.8088-48.08372928020008Clb=6.2m/s t=-68.3C h=6.5% p=55.8hPa 403.000 MHz Type=RS41-SGP ser=U3114535 Radiosonde
PT2VHFU31145352022-12-06 12:26:06-15.8104-48.07712848719835Clb=4.0m/s t=-70.6C h=8.1% p=57.5hPa 403.000 MHz Type=RS41-SGP ser=U3114535 Radiosonde
PT2VHFU31145352022-12-06 12:24:50-15.8116-48.07052869619673Clb=6.3m/s t=-73.1C h=9.5% p=59.1hPa 403.000 MHz Type=RS41-SGP ser=U3114535 Radiosonde
PT2VHFU31145352022-12-06 12:23:46-15.813-48.06462887419510Clb=6.6m/s t=-73.9C h=11.1% p=60.7hPa 403.000 MHz Type=RS41-SGP ser=U3114535 Radiosonde
PT2VHFU31145352022-12-06 12:22:22-15.8142-48.05842715419272Clb=6.3m/s t=-74.7C h=12.4% p=63.3hPa 403.000 MHz Type=RS41-SGP ser=U3114535 Radiosonde
PT2VHFU31145352022-12-06 12:21:18-15.8141-48.05482597019130Clb=7.5m/s t=-75.5C h=12.1% p=64.8hPa 403.000 MHz Type=RS41-SGP ser=U3114535 Radiosonde
PT2VHFU31145352022-12-06 12:20:41-15.8132-48.05082424418932Clb=6.3m/s t=-74.7C h=12.5% p=67.1hPa 403.000 MHz Type=RS41-SGP ser=U3114535 Radiosonde
PT2VHFU31145352022-12-06 12:18:00-15.8118-48.04762434318742Clb=5.2m/s t=-74.6C h=12.9% p=69.3hPa 403.000 MHz Type=RS41-SGP ser=U3114535 Radiosonde
PT2VHFU31145352022-12-06 12:16:50-15.8104-48.04392605218553Clb=6.6m/s t=-74.5C h=13.9% p=71.6hPa 403.000 MHz Type=RS41-SGP ser=U3114535 Radiosonde
PT2VHFU31145352022-12-06 12:15:59-15.8093-48.04012545418360Clb=4.6m/s t=-73.7C h=14.3% p=74.0hPa 403.000 MHz Type=RS41-SGP ser=U3114535 Radiosonde
PT2VHFU31145352022-12-06 12:15:57-15.8086-48.03622675218180Clb=6.0m/s t=-73.6C h=15.6% p=76.3hPa 403.000 MHz Type=RS41-SGP ser=U3114535 Radiosonde
PT2VHFU31145352022-12-06 12:15:54-15.8088-48.03272645217994Clb=7.1m/s t=-73.3C h=17.1% p=78.8hPa 403.000 MHz Type=RS41-SGP ser=U3114535 Radiosonde
PT2VHFU31145352022-12-06 12:15:50-15.8092-48.02872934617808Clb=7.5m/s t=-74.5C h=19.9% p=81.3hPa 403.000 MHz Type=RS41-SGP ser=U3114535 Radiosonde
PT2VHFU31145352022-12-06 12:15:47-15.8099-48.02542833917619Clb=4.6m/s t=-74.7C h=23.8% p=84.0hPa 403.000 MHz Type=RS41-SGP ser=U3114535 Radiosonde
PT2VHFU31145352022-12-06 12:15:38-15.8103-48.02162796717422Clb=7.1m/s t=-75.3C h=24.1% p=86.9hPa 403.000 MHz Type=RS41-SGP ser=U3114535 Radiosonde
PT2VHFU31145352022-12-06 12:15:11-15.8117-48.01632897017236Clb=6.2m/s t=-76.4C h=27.9% p=89.8hPa 403.000 MHz Type=RS41-SGP ser=U3114535 Radiosonde
PT2VHFU31145352022-12-06 12:14:25-15.8137-48.01052856917060Clb=5.7m/s t=-77.5C h=30.1% p=92.5hPa 403.000 MHz Type=RS41-SGP ser=U3114535 Radiosonde
PT2VHFU31145352022-12-06 12:13:18-15.8159-48.00592934816896Clb=6.8m/s t=-78.5C h=32.3% p=95.2hPa 403.000 MHz Type=RS41-SGP ser=U3114535 Radiosonde
PT2VHFU31145352022-12-06 12:12:04-15.8168-48.00152746316732Clb=5.1m/s t=-78.8C h=34.3% p=98.0hPa 403.000 MHz Type=RS41-SGP ser=U3114535 Radiosonde
PT2VHFU31145352022-12-06 12:10:52-15.8173-47.99612827616538Clb=4.6m/s t=-77.5C h=34.4% p=101.4hPa 403.000 MHz Type=RS41-SGP ser=U3114535 Radiosonde
PT2VHFU31145352022-12-06 12:09:08-15.899-47.91253365612308Clb=10.7m/s t=-53.8C h=55.6% p=204.6hPa 403.000 MHz Type=RS41-SGP ser=U3114535 Radiosonde
PT2VHFU31145352022-12-06 12:07:47-15.902-47.91143155212057Clb=6.4m/s t=-51.3C h=50.1% p=212.9hPa 403.000 MHz Type=RS41-SGP ser=U3114535 Radiosonde
PT2VHFU31145352022-12-06 12:06:36-15.9043-47.910792611839Clb=10.6m/s t=-49.5C h=51.3% p=220.1hPa 403.001 MHz Type=RS41-SGP ser=U3114535 Radiosonde
PT2VHFU31145352022-12-06 12:05:21-15.9054-47.91053291911609Clb=7.8m/s t=-47.6C h=54.7% p=227.8hPa 403.001 MHz Type=RS41-SGP ser=U3114535 Radiosonde
PT2VHFU31145352022-12-06 12:04:00-15.9065-47.91073541711407Clb=3.2m/s t=-45.6C h=60.4% p=234.8hPa 403.002 MHz Type=RS41-SGP ser=U3114535 Radiosonde
PT2VHFU31145352022-12-06 12:02:50-15.9075-47.910651511248Clb=7.6m/s t=-44.2C h=67.2% p=240.6hPa 403.001 MHz Type=RS41-SGP ser=U3114535 Radiosonde
PT2VHFU31145352022-12-06 12:01:43-15.9084-47.910911911076Clb=4.1m/s t=-42.7C h=67.9% p=246.8hPa 403.001 MHz Type=RS41-SGP ser=U3114535 Radiosonde
PT2VHFU31145352022-12-06 12:00:39-15.9094-47.9114323410894Clb=4.6m/s t=-41.1C h=78.5% p=253.4hPa 403.001 MHz Type=RS41-SGP ser=U3114535 Radiosonde
PT2VHFU31145352022-12-06 11:59:16-15.9102-47.91191071310667Clb=7.5m/s t=-39.2C h=69.2% p=262.0hPa 403.001 MHz Type=RS41-SGP ser=U3114535 Radiosonde
PT2VHFU31145352022-12-06 11:57:52-15.9109-47.912326710453Clb=4.6m/s t=-37.4C h=72.3% p=270.2hPa 403.001 MHz Type=RS41-SGP ser=U3114535 Radiosonde
PT2VHFU31145352022-12-06 11:56:42-15.9115-47.91163281310261Clb=5.1m/s t=-35.8C h=71.1% p=277.8hPa 403.001 MHz Type=RS41-SGP ser=U3114535 Radiosonde
PT2VHFU31145352022-12-06 11:55:38-15.9121-47.9117191110051Clb=4.8m/s t=-33.9C h=77.6% p=286.2hPa 403.001 MHz Type=RS41-SGP ser=U3114535 Radiosonde
PT2VHFU31145352022-12-06 11:54:24-15.9129-47.9117323199859Clb=6.4m/s t=-32.3C h=77.4% p=294.1hPa 403.001 MHz Type=RS41-SGP ser=U3114535 Radiosonde
PT2VHFU31145352022-12-06 11:53:05-15.9134-47.91226269661Clb=6.8m/s t=-30.7C h=84.0% p=302.5hPa 403.001 MHz Type=RS41-SGP ser=U3114535 Radiosonde
PT2VHFU31145352022-12-06 11:51:55-15.914-47.91267799445Clb=7.6m/s t=-29.1C h=85.8% p=311.8hPa 403.001 MHz Type=RS41-SGP ser=U3114535 Radiosonde
PT2VHFU31145352022-12-06 11:51:32-15.914-47.913214279212Clb=6.3m/s t=-27.2C h=83.5% p=322.0hPa 403.001 MHz Type=RS41-SGP ser=U3114535 Radiosonde
PT2VHFU31145352022-12-06 11:50:53-15.9137-47.91356168976Clb=6.1m/s t=-25.3C h=81.3% p=332.5hPa 403.001 MHz Type=RS41-SGP ser=U3114535 Radiosonde
PT2VHFU31145352022-12-06 11:50:31-15.9137-47.913263178763Clb=6.0m/s t=-23.8C h=81.7% p=342.4hPa 403.001 MHz Type=RS41-SGP ser=U3114535 Radiosonde
PT2VHFU31145352022-12-06 11:50:00-15.914-47.913851158551Clb=9.1m/s t=-22.3C h=80.8% p=352.5hPa 403.001 MHz Type=RS41-SGP ser=U3114535 Radiosonde
PT2VHFU31145352022-12-06 11:49:53-15.9141-47.913914368311Clb=10.6m/s t=-20.5C h=78.7% p=364.3hPa 403.001 MHz Type=RS41-SGP ser=U3114535 Radiosonde
PT2VHFU31145352022-12-06 11:49:43-15.9139-47.91324118104Clb=8.5m/s t=-18.7C h=70.7% p=374.3hPa 403.001 MHz Type=RS41-SGP ser=U3114535 Radiosonde
PT2VHFU31145352022-12-06 11:49:07-15.9127-47.912244357885Clb=9.1m/s t=-18.5C h=99.1% p=385.4hPa 403.001 MHz Type=RS41-SGP ser=U3114535 Radiosonde
PT2VHFU31145352022-12-06 11:48:51-15.9119-47.9103208197681Clb=8.7m/s t=-17.0C h=100.0% p=396.2hPa 403.001 MHz Type=RS41-SGP ser=U3114535 Radiosonde
PT2VHFU31145352022-12-06 11:48:48-15.9109-47.9097195247455Clb=8.7m/s t=-15.5C h=95.6% p=408.1hPa 403.001 MHz Type=RS41-SGP ser=U3114535 Radiosonde
PT2VHFU31145352022-12-06 11:48:45-15.9093-47.9088238287231Clb=6.0m/s t=-13.8C h=89.8% p=420.1hPa 403.001 MHz Type=RS41-SGP ser=U3114535 Radiosonde
PT2VHFU31145352022-12-06 11:48:43-15.9081-47.9076189267044Clb=4.7m/s t=-12.5C h=89.0% p=430.6hPa 403.001 MHz Type=RS41-SGP ser=U3114535 Radiosonde
PT2VHFU31145352022-12-06 11:48:41-15.9069-47.9067252246856Clb=9.1m/s t=-11.5C h=89.8% p=441.3hPa 403.001 MHz Type=RS41-SGP ser=U3114535 Radiosonde
PT2VHFU31145352022-12-06 11:48:39-15.9054-47.9063210226643Clb=10.1m/s t=-10.5C h=94.7% p=453.5hPa 403.001 MHz Type=RS41-SGP ser=U3114535 Radiosonde
PT2VHFU31145352022-12-06 11:48:36-15.9037-47.906198116456Clb=5.6m/s t=-9.3C h=89.7% p=464.8hPa 403.001 MHz Type=RS41-SGP ser=U3114535 Radiosonde
PT2VHFU31145352022-12-06 11:48:11-15.9022-47.9054175286246Clb=9.4m/s t=-7.5C h=82.1% p=477.3hPa 403.001 MHz Type=RS41-SGP ser=U3114535 Radiosonde
PT2VHFU31145352022-12-06 11:47:05-15.9003-47.9049208246048Clb=4.5m/s t=-6.5C h=81.4% p=489.5hPa 403.001 MHz Type=RS41-SGP ser=U3114535 Radiosonde
PT2VHFU31145352022-12-06 11:46:05-15.8981-47.9045191445851Clb=8.8m/s t=-6.5C h=96.7% p=502.1hPa 403.001 MHz Type=RS41-SGP ser=U3114535 Radiosonde
PT2VHFU31145352022-12-06 11:45:04-15.8955-47.9039171315657Clb=7.4m/s t=-5.6C h=99.9% p=514.5hPa 403.001 MHz Type=RS41-SGP ser=U3114535 Radiosonde
PT2VHFU31145352022-12-06 11:44:01-15.8935-47.9029208315443Clb=10.7m/s t=-4.1C h=97.3% p=528.6hPa 403.001 MHz Type=RS41-SGP ser=U3114535 Radiosonde
PT2VHFU31145352022-12-06 11:43:01-15.8913-47.9016232265230Clb=5.1m/s t=-2.9C h=77.7% p=543.2hPa 403.001 MHz Type=RS41-SGP ser=U3114535 Radiosonde
PT2VHFU31145352022-12-06 11:41:55-15.8886-47.8999209195023Clb=7.5m/s t=-1.0C h=70.3% p=557.3hPa 403.001 MHz Type=RS41-SGP ser=U3114535 Radiosonde
PT2VHFU31145352022-12-06 11:40:55-15.8864-47.8988198334814Clb=5.6m/s t=-0.0C h=71.7% p=572.0hPa 403.001 MHz Type=RS41-SGP ser=U3114535 Radiosonde
PT2VHFU31145352022-12-06 11:40:00-15.8839-47.8976203444600Clb=6.6m/s t=0.7C h=74.0% p=587.3hPa 403.001 MHz Type=RS41-SGP ser=U3114535 Radiosonde
PT2VHFU31145352022-12-06 11:39:31-15.8817-47.897207264403Clb=6.8m/s t=1.5C h=81.4% p=601.7hPa 403.001 MHz Type=RS41-SGP ser=U3114535 Radiosonde
PT2VHFU31145352022-12-06 11:38:58-15.88-47.8966203134194Clb=6.7m/s t=3.2C h=78.5% p=617.5hPa 403.001 MHz Type=RS41-SGP ser=U3114535 Radiosonde
PT2VHFU31145352022-12-06 11:38:27-15.8787-47.896424063987Clb=5.8m/s t=4.4C h=79.5% p=633.6hPa 403.001 MHz Type=RS41-SGP ser=U3114535 Radiosonde
PT2VHFU31145352022-12-06 11:37:56-15.8777-47.896814193786Clb=6.3m/s t=4.8C h=89.3% p=649.5hPa 403.001 MHz Type=RS41-SGP ser=U3114535 Radiosonde
PT2VHFU31145352022-12-06 11:37:27-15.8766-47.8977134263582Clb=5.4m/s t=5.9C h=87.8% p=665.7hPa 403.001 MHz Type=RS41-SGP ser=U3114535 Radiosonde
PT2VHFU31145352022-12-06 11:36:53-15.8754-47.899132223394Clb=7.3m/s t=7.2C h=81.5% p=681.1hPa 403.001 MHz Type=RS41-SGP ser=U3114535 Radiosonde
PT2VHFU31145352022-12-06 11:36:29-15.8739-47.9007118243196Clb=8.9m/s t=7.7C h=87.8% p=697.3hPa 403.001 MHz Type=RS41-SGP ser=U3114535 Radiosonde
PT2VHFU31145352022-12-06 11:36:27-15.873-47.9021114202997Clb=6.0m/s t=8.5C h=90.9% p=714.3hPa 403.001 MHz Type=RS41-SGP ser=U3114535 Radiosonde
PT2VHFU31145352022-12-06 11:36:25-15.8723-47.9034170112798Clb=6.5m/s t=9.8C h=82.7% p=731.5hPa 403.001 MHz Type=RS41-SGP ser=U3114535 Radiosonde
PT2VHFU31145352022-12-06 11:36:21-15.8709-47.9041168132573Clb=9.0m/s t=11.7C h=74.3% p=751.7hPa 403.001 MHz Type=RS41-SGP ser=U3114535 Radiosonde
PT2VHFU31145352022-12-06 11:36:09-15.869-47.9043178202372Clb=5.7m/s t=13.3C h=68.1% p=769.8hPa 403.001 MHz Type=RS41-SGP ser=U3114535 Radiosonde
PT2VHFU31145352022-12-06 11:35:17-15.8668-47.9042180282172Clb=5.4m/s t=14.5C h=-1.0% p=788.2hPa 403.001 MHz Type=RS41-SGP ser=U3114535 Radiosonde
PT2VHFU31145352022-12-06 11:34:26-15.8644-47.9044163301964Clb=7.8m/s t=15.8C h=-1.0% p=-1.0hPa 403.001 MHz Type=RS41 ser=U3114535 Radiosonde